createdAt,value
2018-09-26T00:01:22.816Z,100288.67
2018-09-26T00:04:08.547Z,100280.50
2018-09-26T00:06:36.252Z,100281.44
2018-09-26T00:09:05.823Z,100282.23
2018-09-26T00:11:33.395Z,100292.32
2018-09-26T00:14:01.066Z,100288.17
2018-09-26T00:16:28.604Z,100279.87
2018-09-26T00:18:56.180Z,100274.72
2018-09-26T00:21:23.719Z,100291.85
2018-09-26T00:23:51.335Z,100289.24
2018-09-26T00:26:18.849Z,100284.17
2018-09-26T00:28:46.526Z,100267.16
2018-09-26T00:31:14.043Z,100265.13
2018-09-26T00:33:41.592Z,100262.64
2018-09-26T00:36:09.199Z,100242.95
2018-09-26T00:38:36.863Z,100246.95
2018-09-26T00:41:04.408Z,100252.88
2018-09-26T00:43:31.976Z,100247.54
2018-09-26T00:45:59.705Z,100249.73
2018-09-26T00:48:27.275Z,100247.98
2018-09-26T00:50:54.825Z,100241.84
2018-09-26T00:53:22.410Z,100236.10
2018-09-26T00:55:49.995Z,100222.16
2018-09-26T00:58:17.600Z,100211.14
2018-09-26T01:00:45.182Z,100190.80
2018-09-26T01:03:12.918Z,100195.38
2018-09-26T01:05:40.612Z,100195.21
2018-09-26T01:08:08.209Z,100202.80
2018-09-26T01:10:35.922Z,100200.20
2018-09-26T01:13:03.516Z,100209.97
2018-09-26T01:15:31.185Z,100201.42
2018-09-26T01:17:58.685Z,100194.45
2018-09-26T01:20:26.291Z,100188.36
2018-09-26T01:22:54.914Z,100185.69
2018-09-26T01:25:22.503Z,100179.13
2018-09-26T01:27:50.116Z,100175.83
2018-09-26T01:30:17.660Z,100172.17
2018-09-26T01:32:45.339Z,100177.41
2018-09-26T01:35:12.988Z,100180.00
2018-09-26T01:37:40.550Z,100179.75
2018-09-26T01:40:08.292Z,100181.89
2018-09-26T01:42:36.077Z,100181.20
2018-09-26T01:45:03.652Z,100182.05
2018-09-26T01:47:31.357Z,100184.64
2018-09-26T01:49:58.872Z,100184.81
2018-09-26T01:52:26.458Z,100182.63
2018-09-26T01:54:54.175Z,100181.31
2018-09-26T01:57:21.833Z,100172.70
2018-09-26T01:59:49.364Z,100176.16
2018-09-26T02:02:17.079Z,100177.27
2018-09-26T02:04:45.072Z,100169.88
2018-09-26T02:07:12.792Z,100168.99
2018-09-26T02:09:40.365Z,100175.27
2018-09-26T02:12:08.215Z,100171.41
2018-09-26T02:14:35.789Z,100170.48
2018-09-26T02:17:03.407Z,100171.11
2018-09-26T02:19:31.003Z,100165.36
2018-09-26T02:21:58.691Z,100167.78
2018-09-26T02:24:26.227Z,100178.11
2018-09-26T02:26:53.786Z,100183.63
2018-09-26T02:29:21.454Z,100184.20
2018-09-26T02:31:49.011Z,100186.03
2018-09-26T02:34:16.584Z,100182.41
2018-09-26T02:36:44.174Z,100182.73
2018-09-26T02:39:11.746Z,100181.11
2018-09-26T02:41:39.338Z,100176.02
2018-09-26T02:44:07.028Z,100173.76
2018-09-26T02:46:34.571Z,100165.00
2018-09-26T02:49:07.030Z,100171.61
2018-09-26T02:51:36.531Z,100174.09
2018-09-26T02:54:04.349Z,100169.76
2018-09-26T02:56:31.888Z,100178.03
2018-09-26T02:58:59.634Z,100171.16
2018-09-26T03:01:27.304Z,100173.11
2018-09-26T03:03:54.897Z,100169.38
2018-09-26T03:06:22.491Z,100173.53
2018-09-26T03:08:50.179Z,100166.84
2018-09-26T03:11:17.838Z,100169.53
2018-09-26T03:13:45.365Z,100159.83
2018-09-26T03:16:12.981Z,100166.16
2018-09-26T03:18:40.590Z,100160.82
2018-09-26T03:21:08.205Z,100148.50
2018-09-26T03:23:36.017Z,100151.38
2018-09-26T03:26:03.656Z,100147.69
2018-09-26T03:28:31.314Z,100154.09
2018-09-26T03:30:58.862Z,100147.36
2018-09-26T03:33:27.523Z,100146.25
2018-09-26T03:35:55.126Z,100145.03
2018-09-26T03:38:22.679Z,100145.14
2018-09-26T03:40:50.319Z,100136.70
2018-09-26T03:43:17.894Z,100129.75
2018-09-26T03:45:45.476Z,100125.62
2018-09-26T03:48:13.067Z,100116.90
2018-09-26T03:50:40.864Z,100111.23
2018-09-26T03:53:08.452Z,100096.38
2018-09-26T03:55:36.004Z,100090.06
2018-09-26T03:58:03.681Z,100089.24
2018-09-26T04:00:31.397Z,100086.38
2018-09-26T04:02:59.076Z,100089.65
2018-09-26T04:05:26.658Z,100087.04
2018-09-26T04:07:54.263Z,100080.68
2018-09-26T04:10:21.860Z,100081.52
2018-09-26T04:12:49.839Z,100086.16
2018-09-26T04:15:17.409Z,100095.52
2018-09-26T04:17:45.084Z,100093.23
2018-09-26T04:20:12.837Z,100099.25
2018-09-26T04:22:40.634Z,100093.59
2018-09-26T04:25:08.162Z,100092.02
2018-09-26T04:27:35.821Z,100100.41
2018-09-26T04:30:03.479Z,100107.67
2018-09-26T04:32:31.042Z,100111.11
2018-09-26T04:34:58.582Z,100118.07
2018-09-26T04:37:26.210Z,100116.28
2018-09-26T04:39:53.808Z,100120.69
2018-09-26T04:42:21.396Z,100119.11
2018-09-26T04:44:49.050Z,100119.48
2018-09-26T04:47:16.797Z,100117.96
2018-09-26T04:49:44.355Z,100121.86
2018-09-26T04:52:12.002Z,100125.42
2018-09-26T04:54:39.590Z,100132.33
2018-09-26T04:57:07.107Z,100133.95
2018-09-26T04:59:34.668Z,100139.20
2018-09-26T05:02:03.255Z,100148.53
2018-09-26T05:04:30.943Z,100157.87
2018-09-26T05:06:58.466Z,100148.44
2018-09-26T05:09:26.173Z,100158.34
2018-09-26T05:11:53.723Z,100155.66
2018-09-26T05:14:21.326Z,100155.98
2018-09-26T05:16:49.050Z,100172.27
2018-09-26T05:19:16.694Z,100170.00
2018-09-26T05:21:44.240Z,100173.91
2018-09-26T05:24:11.798Z,100167.77
2018-09-26T05:26:39.562Z,100165.05
2018-09-26T05:29:07.121Z,100163.41
2018-09-26T05:31:34.777Z,100148.28
2018-09-26T05:34:02.449Z,100142.98
2018-09-26T05:36:30.082Z,100139.34
2018-09-26T05:38:57.704Z,100135.80
2018-09-26T05:41:25.237Z,100128.17
2018-09-26T05:43:52.804Z,100105.61
2018-09-26T05:46:20.399Z,100097.10
2018-09-26T05:48:48.496Z,100102.27
2018-09-26T05:51:16.200Z,100104.13
2018-09-26T05:59:12.608Z,100122.28
2018-09-26T06:01:49.642Z,100121.61
2018-09-26T06:04:17.333Z,100129.53
2018-09-26T06:06:44.901Z,100114.19
2018-09-26T06:09:13.772Z,100124.58
2018-09-26T06:11:41.738Z,100129.39
2018-09-26T06:14:10.160Z,100123.69
2018-09-26T06:16:38.007Z,100136.80
2018-09-26T06:21:50.861Z,100140.22
2018-09-26T06:24:18.469Z,100140.84
2018-09-26T06:26:46.058Z,100152.36
2018-09-26T06:29:13.576Z,100153.25
2018-09-26T06:31:41.259Z,100156.64
2018-09-26T06:34:08.829Z,100160.62
2018-09-26T06:36:36.487Z,100152.97
2018-09-26T06:39:04.876Z,100148.56
2018-09-26T06:41:32.584Z,100154.67
2018-09-26T06:44:00.106Z,100147.30
2018-09-26T06:46:27.645Z,100151.73
2018-09-26T06:48:55.219Z,100154.19
2018-09-26T06:51:22.831Z,100159.69
2018-09-26T06:53:50.349Z,100150.90
2018-09-26T06:56:17.876Z,100161.95
2018-09-26T06:58:45.587Z,100170.45
2018-09-26T07:01:13.176Z,100162.58
2018-09-26T07:03:40.960Z,100168.53
2018-09-26T07:06:08.673Z,100170.61
2018-09-26T07:08:36.942Z,100167.05
2018-09-26T07:11:04.576Z,100167.49
2018-09-26T07:13:32.146Z,100168.05
2018-09-26T07:15:59.658Z,100162.78
2018-09-26T07:18:27.208Z,100168.99
2018-09-26T07:20:54.775Z,100169.67
2018-09-26T07:23:22.511Z,100173.98
2018-09-26T07:25:50.227Z,100166.24
2018-09-26T07:28:17.896Z,100172.44
2018-09-26T07:30:45.471Z,100174.89
2018-09-26T07:35:57.140Z,100171.76
2018-09-26T07:38:24.689Z,100177.05
2018-09-26T07:40:52.284Z,100183.31
2018-09-26T07:43:19.864Z,100177.59
2018-09-26T07:45:47.403Z,100186.00
2018-09-26T07:48:15.162Z,100184.65
2018-09-26T07:50:42.741Z,100184.59
2018-09-26T07:53:10.454Z,100188.05
2018-09-26T07:55:37.895Z,100189.87
2018-09-26T07:58:05.712Z,100185.42
2018-09-26T08:00:33.306Z,100189.85
2018-09-26T08:03:00.775Z,100189.48
2018-09-26T08:05:28.365Z,100171.45
2018-09-26T08:07:56.129Z,100167.95
2018-09-26T08:10:23.700Z,100164.41
2018-09-26T08:12:51.238Z,100170.56
2018-09-26T08:15:18.843Z,100172.67
2018-09-26T08:17:46.455Z,100172.63
2018-09-26T08:20:14.274Z,100179.91
2018-09-26T08:22:41.835Z,100177.86
2018-09-26T08:25:09.353Z,100178.78
2018-09-26T08:27:36.967Z,100178.52
2018-09-26T08:30:04.612Z,100177.31
2018-09-26T08:32:32.195Z,100176.33
2018-09-26T08:34:59.770Z,100167.75
2018-09-26T08:37:27.339Z,100167.14
2018-09-26T08:39:54.915Z,100170.30
2018-09-26T08:42:22.451Z,100164.16
2018-09-26T08:44:50.030Z,100170.75
2018-09-26T08:47:17.638Z,100168.90
2018-09-26T08:49:45.182Z,100176.05
2018-09-26T08:52:12.820Z,100166.64
2018-09-26T08:54:40.338Z,100167.39
2018-09-26T08:57:08.015Z,100159.47
2018-09-26T08:59:35.602Z,100168.12
2018-09-26T09:02:03.312Z,100162.27
2018-09-26T09:04:30.874Z,100168.69
2018-09-26T09:06:58.442Z,100163.47
2018-09-26T09:09:25.991Z,100156.38
2018-09-26T09:11:53.562Z,100163.28
2018-09-26T09:14:21.223Z,100183.08
2018-09-26T09:16:48.825Z,100190.63
2018-09-26T09:19:16.375Z,100193.22
2018-09-26T09:21:43.896Z,100179.90
2018-09-26T09:24:11.431Z,100170.08
2018-09-26T09:26:39.080Z,100161.02
2018-09-26T09:29:06.649Z,100165.16
2018-09-26T09:31:34.229Z,100171.22
2018-09-26T09:34:02.806Z,100164.88
2018-09-26T09:36:30.372Z,100158.95
2018-09-26T09:38:57.921Z,100160.93
2018-09-26T09:41:25.499Z,100163.93
2018-09-26T09:43:53.102Z,100162.55
2018-09-26T09:46:20.613Z,100167.34
2018-09-26T09:48:48.361Z,100161.78
2018-09-26T09:51:15.922Z,100156.14
2018-09-26T09:53:43.501Z,100162.71
2018-09-26T09:56:11.175Z,100163.22
2018-09-26T09:58:38.682Z,100161.86
2018-09-26T10:01:11.897Z,100157.31
2018-09-26T10:03:39.919Z,100163.56
2018-09-26T10:06:07.478Z,100156.84
2018-09-26T10:08:35.039Z,100144.62
2018-09-26T10:11:02.572Z,100140.30
2018-09-26T10:13:30.145Z,100148.90
2018-09-26T10:15:57.702Z,100150.22
2018-09-26T10:18:25.322Z,100146.89
2018-09-26T10:20:52.891Z,100146.80
2018-09-26T10:23:20.550Z,100143.78
2018-09-26T10:25:48.117Z,100146.44
2018-09-26T10:28:15.922Z,100136.42
2018-09-26T10:30:43.882Z,100140.36
2018-09-26T10:33:11.403Z,100131.23
2018-09-26T10:35:39.188Z,100142.49
2018-09-26T10:38:06.845Z,100136.20
2018-09-26T10:40:34.420Z,100124.78
2018-09-26T10:43:02.038Z,100129.73
2018-09-26T10:45:29.938Z,100124.75
2018-09-26T10:47:57.502Z,100121.60
2018-09-26T10:50:25.311Z,100123.91
2018-09-26T10:52:53.148Z,100126.94
2018-09-26T10:55:20.811Z,100129.14
2018-09-26T10:57:48.515Z,100127.75
2018-09-26T11:00:16.096Z,100125.67
2018-09-26T11:02:43.710Z,100118.64
2018-09-26T11:05:11.344Z,100118.75
2018-09-26T11:07:38.938Z,100118.93
2018-09-26T11:10:06.671Z,100112.67
2018-09-26T11:12:34.336Z,100112.31
2018-09-26T11:15:01.878Z,100104.14
2018-09-26T11:17:29.462Z,100097.28
2018-09-26T11:19:56.993Z,100089.62
2018-09-26T11:22:24.579Z,100078.20
2018-09-26T11:24:52.053Z,100085.66
2018-09-26T11:27:19.709Z,100083.99
2018-09-26T11:29:47.323Z,100077.06
2018-09-26T11:32:15.073Z,100079.47
2018-09-26T11:34:42.726Z,100075.94
2018-09-26T11:37:10.328Z,100076.67
2018-09-26T11:39:37.883Z,100069.46
2018-09-26T11:42:05.470Z,100061.83
2018-09-26T11:44:33.229Z,100061.52
2018-09-26T11:47:00.758Z,100056.71
2018-09-26T11:49:28.330Z,100056.77
2018-09-26T11:51:55.941Z,100052.67
2018-09-26T11:54:23.521Z,100058.27
2018-09-26T11:56:51.105Z,100049.41
2018-09-26T11:59:18.659Z,100048.22
2018-09-26T12:01:46.501Z,100051.80
2018-09-26T12:04:14.151Z,100049.54
2018-09-26T12:06:41.677Z,100044.37
2018-09-26T12:09:09.707Z,100039.45
2018-09-26T12:11:37.477Z,100030.59
2018-09-26T12:14:05.108Z,100023.27
2018-09-26T12:16:32.765Z,100025.25
2018-09-26T12:19:00.409Z,100019.83
2018-09-26T12:21:30.632Z,100018.29
2018-09-26T12:23:55.968Z,100011.42
2018-09-26T12:26:23.519Z,100013.52
2018-09-26T12:28:51.066Z,100011.98
2018-09-26T12:31:18.731Z,100001.88
2018-09-26T12:33:46.303Z,100001.23
2018-09-26T12:36:14.053Z,100005.39
2018-09-26T12:38:41.696Z,99995.61
2018-09-26T12:41:09.337Z,99998.06
2018-09-26T12:43:36.945Z,99989.05
2018-09-26T12:46:04.591Z,99989.56
2018-09-26T12:48:32.131Z,99987.83
2018-09-26T12:50:59.977Z,99985.14
2018-09-26T12:53:27.533Z,99976.72
2018-09-26T12:55:55.096Z,99978.11
2018-09-26T12:58:22.761Z,99975.70
2018-09-26T13:00:50.341Z,99980.16
2018-09-26T13:03:17.967Z,99975.01
2018-09-26T13:05:45.584Z,99971.66
2018-09-26T13:08:13.159Z,99969.09
2018-09-26T13:10:41.219Z,99970.76
2018-09-26T13:13:08.927Z,99968.94
2018-09-26T13:15:36.486Z,99966.69
2018-09-26T13:18:04.076Z,99967.05
2018-09-26T13:20:31.971Z,99968.84
2018-09-26T13:22:59.523Z,99962.61
2018-09-26T13:25:27.301Z,99960.58
2018-09-26T13:27:54.807Z,99952.27
2018-09-26T13:30:22.361Z,99946.33
2018-09-26T13:32:49.911Z,99942.56
2018-09-26T13:35:17.463Z,99942.94
2018-09-26T13:37:45.039Z,99937.06
2018-09-26T13:40:28.414Z,99932.09
2018-09-26T13:42:57.528Z,99932.44
2018-09-26T13:45:25.234Z,99932.59
2018-09-26T13:47:52.917Z,99923.29
2018-09-26T13:50:21.542Z,99923.33
2018-09-26T13:52:49.059Z,99932.31
2018-09-26T13:55:16.747Z,99922.38
2018-09-26T13:57:44.377Z,99926.39
2018-09-26T14:00:14.727Z,99924.28
2018-09-26T14:02:42.340Z,99919.61
2018-09-26T14:05:09.949Z,99919.73
2018-09-26T14:07:37.566Z,99924.55
2018-09-26T14:10:05.167Z,99920.75
2018-09-26T14:12:32.714Z,99916.02
2018-09-26T14:15:00.247Z,99920.47
2018-09-26T14:17:27.843Z,99910.77
2018-09-26T14:19:55.418Z,99912.22
2018-09-26T14:22:23.074Z,99911.75
2018-09-26T14:24:50.800Z,99906.75
2018-09-26T14:27:18.387Z,99907.61
2018-09-26T14:29:45.929Z,99896.97
2018-09-26T14:32:13.669Z,99900.84
2018-09-26T14:34:41.264Z,99903.11
2018-09-26T14:37:08.951Z,99898.52
2018-09-26T14:39:36.604Z,99892.41
2018-09-26T14:42:04.027Z,99894.86
2018-09-26T14:44:31.733Z,99887.94
2018-09-26T14:46:59.306Z,99888.25
2018-09-26T14:49:26.872Z,99888.80
2018-09-26T14:51:54.419Z,99887.44
2018-09-26T14:54:21.987Z,99893.59
2018-09-26T14:56:49.550Z,99886.02
2018-09-26T14:59:18.071Z,99886.91
2018-09-26T15:01:46.222Z,99894.56
2018-09-26T15:04:13.965Z,99889.48
2018-09-26T15:06:41.523Z,99892.45
2018-09-26T15:09:09.082Z,99890.62
2018-09-26T15:11:36.679Z,99892.63
2018-09-26T15:14:04.292Z,99897.80
2018-09-26T15:16:31.810Z,99890.36
2018-09-26T15:18:59.655Z,99894.91
2018-09-26T15:21:27.231Z,99893.30
2018-09-26T15:23:54.991Z,99900.62
2018-09-26T15:26:22.569Z,99899.49
2018-09-26T15:28:50.515Z,99899.76
2018-09-26T15:31:18.040Z,99896.03
2018-09-26T15:33:45.653Z,99890.69
2018-09-26T15:36:13.286Z,99893.77
2018-09-26T15:38:40.839Z,99887.06
2018-09-26T15:41:08.876Z,99887.20
2018-09-26T15:43:36.439Z,99890.08
2018-09-26T15:46:04.006Z,99886.13
2018-09-26T15:48:31.774Z,99887.83
2018-09-26T15:50:59.296Z,99888.12
2018-09-26T15:53:26.890Z,99884.91
2018-09-26T15:55:54.575Z,99882.34
2018-09-26T15:58:22.229Z,99878.18
2018-09-26T16:00:49.848Z,99886.02
2018-09-26T16:03:17.567Z,99888.53
2018-09-26T16:05:45.150Z,99885.96
2018-09-26T16:08:12.819Z,99883.86
2018-09-26T16:10:41.107Z,99880.94
2018-09-26T16:13:08.781Z,99884.00
2018-09-26T16:15:36.451Z,99882.52
2018-09-26T16:18:03.967Z,99882.36
2018-09-26T16:20:31.525Z,99887.03
2018-09-26T16:22:59.027Z,99883.62
2018-09-26T16:25:26.755Z,99888.95
2018-09-26T16:27:54.249Z,99886.66
2018-09-26T16:30:21.871Z,99878.83
2018-09-26T16:32:49.348Z,99878.13
2018-09-26T16:35:16.895Z,99879.70
2018-09-26T16:37:44.613Z,99880.84
2018-09-26T16:40:12.179Z,99881.86
2018-09-26T16:42:39.712Z,99893.13
2018-09-26T16:45:07.783Z,99896.30
2018-09-26T16:47:35.406Z,99893.63
2018-09-26T16:50:03.231Z,99895.91
2018-09-26T16:52:30.821Z,99894.64
2018-09-26T16:54:58.490Z,99901.95
2018-09-26T16:57:26.098Z,99900.55
2018-09-26T16:59:53.617Z,99906.62
2018-09-26T17:02:21.227Z,99911.10
2018-09-26T17:04:48.708Z,99905.73
2018-09-26T17:07:16.305Z,99911.67
2018-09-26T17:09:43.916Z,99906.23
2018-09-26T17:12:11.627Z,99908.22
2018-09-26T17:14:39.039Z,99909.52
2018-09-26T17:17:06.784Z,99916.46
2018-09-26T17:19:34.313Z,99920.76
2018-09-26T17:22:01.889Z,99924.01
2018-09-26T17:24:29.759Z,99918.26
2018-09-26T17:26:57.769Z,99921.39
2018-09-26T17:29:25.412Z,99920.72
2018-09-26T17:31:53.005Z,99928.61
2018-09-26T17:34:20.656Z,99926.77
2018-09-26T17:36:48.810Z,99926.73
2018-09-26T17:39:16.430Z,99928.01
2018-09-26T17:41:44.156Z,99926.50
2018-09-26T17:44:12.237Z,99933.06
2018-09-26T17:46:39.832Z,99932.86
2018-09-26T17:49:07.521Z,99935.77
2018-09-26T17:51:35.027Z,99937.78
2018-09-26T17:54:02.587Z,99937.98
2018-09-26T17:56:30.419Z,99935.61
2018-09-26T17:58:58.125Z,99927.78
2018-09-26T18:01:25.899Z,99929.69
2018-09-26T18:03:55.250Z,99932.51
2018-09-26T18:06:22.829Z,99937.13
2018-09-26T18:08:50.353Z,99933.30
2018-09-26T18:11:18.117Z,99941.39
2018-09-26T18:13:46.083Z,99938.41
2018-09-26T18:16:13.714Z,99938.23
2018-09-26T18:18:41.431Z,99945.87
2018-09-26T18:21:09.276Z,99940.72
2018-09-26T18:23:37.467Z,99950.55
2018-09-26T18:26:05.297Z,99949.34
2018-09-26T18:28:33.052Z,99953.94
2018-09-26T18:31:00.732Z,99960.72
2018-09-26T18:33:28.336Z,99966.12
2018-09-26T18:35:56.377Z,99965.72
2018-09-26T18:38:23.940Z,99965.39
2018-09-26T18:40:51.521Z,99961.92
2018-09-26T18:43:19.788Z,99961.52
2018-09-26T18:45:47.357Z,99961.60
2018-09-26T18:48:15.048Z,99968.27
2018-09-26T18:50:42.722Z,99971.42
2018-09-26T18:53:10.398Z,99972.34
2018-09-26T18:55:38.081Z,99979.95
2018-09-26T18:58:05.702Z,99972.08
2018-09-26T19:00:33.447Z,99968.60
2018-09-26T19:03:01.010Z,99977.50
2018-09-26T19:05:28.613Z,99977.98
2018-09-26T19:07:56.249Z,99977.57
2018-09-26T19:10:23.802Z,99982.45
2018-09-26T19:12:51.546Z,99977.64
2018-09-26T19:15:19.337Z,99976.35
2018-09-26T19:17:47.027Z,99983.01
2018-09-26T19:20:14.929Z,99977.74
2018-09-26T19:22:42.524Z,99979.03
2018-09-26T19:25:10.448Z,99976.35
2018-09-26T19:27:38.202Z,99986.11
2018-09-26T19:30:05.772Z,99978.20
2018-09-26T19:32:33.403Z,99980.88
2018-09-26T19:35:01.967Z,99983.07
2018-09-26T19:37:29.863Z,99977.84
2018-09-26T19:39:57.424Z,99981.39
2018-09-26T19:42:25.099Z,99980.97
2018-09-26T19:44:52.671Z,99976.16
2018-09-26T19:47:21.960Z,99981.48
2018-09-26T19:50:02.352Z,99988.60
2018-09-26T19:52:30.109Z,99995.27
2018-09-26T19:54:57.904Z,99988.73
2018-09-26T19:57:25.631Z,99990.95
2018-09-26T19:59:53.298Z,99993.19
2018-09-26T20:02:21.741Z,99996.30
2018-09-26T20:04:49.510Z,99995.00
2018-09-26T20:07:17.225Z,99995.47
2018-09-26T20:09:44.823Z,99989.71
2018-09-26T20:12:12.399Z,99988.41
2018-09-26T20:14:40.012Z,99987.98
2018-09-26T20:17:08.811Z,99993.75
2018-09-26T20:19:36.620Z,100001.25
2018-09-26T20:22:04.587Z,99999.05
2018-09-26T20:24:32.135Z,100002.62
2018-09-26T20:26:59.776Z,100002.22
2018-09-26T20:29:27.445Z,99999.19
2018-09-26T20:31:54.984Z,100007.54
2018-09-26T20:34:22.503Z,100005.36
2018-09-26T20:36:50.054Z,100007.59
2018-09-26T20:39:17.672Z,100004.94
2018-09-26T20:41:45.298Z,99999.69
2018-09-26T20:44:12.821Z,99998.81
2018-09-26T20:46:40.409Z,99999.27
2018-09-26T20:49:08.031Z,99994.88
2018-09-26T20:51:35.734Z,99987.84
2018-09-26T20:54:03.992Z,99990.06
2018-09-26T20:56:31.593Z,99999.30
2018-09-26T20:58:59.427Z,100001.93
2018-09-26T21:01:27.155Z,100004.58
2018-09-26T21:03:55.711Z,100006.80
2018-09-26T21:06:23.607Z,100002.38
2018-09-26T21:08:51.161Z,100002.83
2018-09-26T21:11:18.742Z,100008.97
2018-09-26T21:13:46.307Z,100009.84
2018-09-26T21:16:13.914Z,100008.10
2018-09-26T21:18:41.528Z,100006.34
2018-09-26T21:21:09.182Z,100004.56
2018-09-26T21:23:37.024Z,99998.84
2018-09-26T21:26:04.614Z,99998.84
2018-09-26T21:28:32.918Z,100001.91
2018-09-26T21:31:02.743Z,99995.31
2018-09-26T21:33:30.872Z,99999.70
2018-09-26T21:35:58.523Z,99991.34
2018-09-26T21:38:26.171Z,99996.16
2018-09-26T21:40:53.868Z,99996.59
2018-09-26T21:43:21.429Z,99999.67
2018-09-26T21:45:49.011Z,99999.67
2018-09-26T21:48:16.611Z,99996.61
2018-09-26T21:50:44.599Z,99997.92
2018-09-26T21:53:12.263Z,99996.60
2018-09-26T21:55:39.899Z,99993.97
2018-09-26T21:58:07.590Z,99999.22
2018-09-26T22:00:35.287Z,100001.39
2018-09-26T22:03:02.884Z,100002.71
2018-09-26T22:05:30.547Z,100002.26
2018-09-26T22:07:58.205Z,99998.69
2018-09-26T22:10:25.773Z,100001.33
2018-09-26T22:12:53.459Z,99996.90
2018-09-26T22:15:23.275Z,99996.92
2018-09-26T22:17:51.144Z,99992.95
2018-09-26T22:20:18.952Z,99995.56
2018-09-26T22:22:46.695Z,99993.36
2018-09-26T22:25:15.107Z,99992.48
2018-09-26T22:27:42.733Z,99996.39
2018-09-26T22:30:10.522Z,99995.50
2018-09-26T22:32:38.258Z,99996.35
2018-09-26T22:35:05.888Z,99997.66
2018-09-26T22:37:33.455Z,99998.08
2018-09-26T22:40:01.156Z,99997.18
2018-09-26T22:42:28.741Z,99998.91
2018-09-26T22:44:56.365Z,99998.45
2018-09-26T22:47:24.012Z,99997.16
2018-09-26T22:49:51.584Z,99997.16
2018-09-26T22:52:19.140Z,99998.45
2018-09-26T22:54:46.904Z,99994.91
2018-09-26T22:57:14.592Z,99998.82
2018-09-26T22:59:42.190Z,99997.95
2018-09-26T23:02:09.864Z,99998.38
2018-09-26T23:04:37.439Z,100003.16
2018-09-26T23:07:05.038Z,100000.92
2018-09-26T23:09:32.596Z,99996.08
2018-09-26T23:12:00.376Z,99994.77
2018-09-26T23:14:28.001Z,99989.03
2018-09-26T23:16:55.770Z,99988.55
2018-09-26T23:19:23.311Z,99985.89
2018-09-26T23:21:50.982Z,99984.58
2018-09-26T23:24:18.603Z,99981.49
2018-09-26T23:26:46.173Z,99983.66
2018-09-26T23:29:13.870Z,99982.71
2018-09-26T23:31:41.648Z,99976.15
2018-09-26T23:34:09.264Z,99978.33
2018-09-26T23:36:36.898Z,99972.58
2018-09-26T23:39:06.033Z,99972.13
2018-09-26T23:41:33.717Z,99975.21
2018-09-26T23:44:01.308Z,99974.77
2018-09-26T23:46:29.012Z,99975.26
2018-09-26T23:48:56.622Z,99973.08
2018-09-26T23:51:24.238Z,99973.52
2018-09-26T23:53:51.957Z,99970.41
2018-09-26T23:56:19.597Z,99973.90
2018-09-26T23:58:47.218Z,99974.31
